Time;durP1;ratioP1;P1;durP2;ratioP2;P2;SDS_P1;SDS_P2;PMS_P1;PMS_P2;Temp;Humidity;BMP_temperature;BMP_pressure;BME280_temperature;BME280_humidity;BME280_pressure;Samples;Min_cycle;Max_cycle;Signal;HPM_P1;HPM_P2
2021/05/11 00:00:53;;;;;;;6.53;5.15;;;;;;;;;;4957356;28;20026;-81
2021/05/11 00:03:38;;;;;;;8.45;6.53;;;;;;;;;;4956368;28;20019;-80
2021/05/11 00:06:24;;;;;;;7.10;4.10;;;;;;;;;;4956998;28;20026;-79
2021/05/11 00:09:09;;;;;;;4.88;3.72;;;;;;;;;;4962031;28;20031;-80
2021/05/11 00:11:54;;;;;;;5.18;4.10;;;;;;;;;;4952873;28;20035;-79
2021/05/11 00:14:39;;;;;;;4.53;3.25;;;;;;;;;;4962893;28;20022;-80
2021/05/11 00:17:24;;;;;;;7.55;4.07;;;;;;;;;;4953423;28;20386;-80
2021/05/11 00:20:10;;;;;;;7.10;4.45;;;;;;;;;;4962904;28;20480;-80
2021/05/11 00:22:55;;;;;;;5.85;4.20;;;;;;;;;;4945688;28;20023;-80
2021/05/11 00:25:41;;;;;;;5.03;3.83;;;;;;;;;;4957014;28;20132;-80
2021/05/11 00:28:26;;;;;;;5.40;4.38;;;;;;;;;;4957936;28;20063;-80
2021/05/11 00:31:11;;;;;;;6.85;4.25;;;;;;;;;;4965883;28;20027;-80
2021/05/11 00:33:56;;;;;;;5.10;4.05;;;;;;;;;;4955656;28;20125;-80
2021/05/11 00:36:41;;;;;;;5.97;4.30;;;;;;;;;;4962659;28;20026;-81
2021/05/11 00:39:27;;;;;;;5.97;3.90;;;;;;;;;;4951236;28;20077;-80
2021/05/11 00:42:12;;;;;;;5.15;3.92;;;;;;;;;;4959374;28;20124;-80
2021/05/11 00:44:57;;;;;;;6.25;4.65;;;;;;;;;;4966330;28;20037;-80
2021/05/11 00:47:42;;;;;;;7.57;4.97;;;;;;;;;;4959947;28;20030;-79
2021/05/11 00:50:28;;;;;;;8.82;5.57;;;;;;;;;;4951619;28;20363;-80
2021/05/11 00:53:13;;;;;;;6.32;4.40;;;;;;;;;;4962104;28;20713;-81
2021/05/11 00:55:58;;;;;;;6.28;4.43;;;;;;;;;;4959683;28;20160;-80
2021/05/11 00:58:43;;;;;;;5.53;4.20;;;;;;;;;;4942990;28;20030;-80
2021/05/11 01:01:29;;;;;;;6.45;4.30;;;;;;;;;;4957402;28;20119;-79
2021/05/11 01:04:14;;;;;;;5.97;4.07;;;;;;;;;;4955515;28;20053;-80
2021/05/11 01:06:59;;;;;;;4.22;3.17;;;;;;;;;;4963463;28;20059;-80
2021/05/11 01:09:45;;;;;;;4.13;3.25;;;;;;;;;;4958707;28;20368;-80
2021/05/11 01:12:30;;;;;;;5.10;3.72;;;;;;;;;;4961415;28;20030;-79
2021/05/11 01:15:16;;;;;;;4.22;3.05;;;;;;;;;;4961442;28;20033;-80
2021/05/11 01:18:06;;;;;;;4.50;3.15;;;;;;;;;;4957949;28;20709;-80
2021/05/11 01:20:52;;;;;;;5.82;3.60;;;;;;;;;;4951096;28;20027;-80
2021/05/11 01:23:57;;;;;;;4.75;3.50;;;;;;;;;;4958665;28;20105;-81
2021/05/11 01:50:11;;;;;;;7.10;3.20;;;;;;;;;;4954864;28;20030;-80
2021/05/11 01:53:06;;;;;;;5.15;3.22;;;;;;;;;;4955176;28;20058;-80
2021/05/11 01:56:08;;;;;;;6.55;4.07;;;;;;;;;;4957546;28;20019;-79
2021/05/11 02:23:07;;;;;;;5.97;4.47;;;;;;;;;;4956890;28;20270;-80
2021/05/11 02:25:52;;;;;;;6.50;4.28;;;;;;;;;;4958463;28;20487;-80
2021/05/11 02:28:37;;;;;;;6.47;4.22;;;;;;;;;;4957659;28;20557;-79
2021/05/11 02:31:22;;;;;;;6.78;4.72;;;;;;;;;;4952052;28;20118;-79
2021/05/11 02:34:07;;;;;;;7.82;5.70;;;;;;;;;;4962599;28;20077;-78
2021/05/11 02:36:52;;;;;;;7.80;4.68;;;;;;;;;;4957455;28;20029;-79
2021/05/11 02:39:38;;;;;;;10.50;5.20;;;;;;;;;;4954564;28;20141;-79
2021/05/11 02:42:23;;;;;;;6.22;4.95;;;;;;;;;;4956299;28;20030;-79
2021/05/11 02:45:13;;;;;;;7.00;4.97;;;;;;;;;;4958347;28;20105;-79
2021/05/11 02:47:59;;;;;;;11.05;6.63;;;;;;;;;;4953015;28;20026;-79
2021/05/11 02:50:44;;;;;;;8.13;5.72;;;;;;;;;;4957170;28;20038;-80
2021/05/11 02:53:29;;;;;;;10.25;6.90;;;;;;;;;;4956568;28;20118;-79
2021/05/11 02:56:14;;;;;;;9.85;6.15;;;;;;;;;;4956213;28;20128;-79
2021/05/11 02:58:59;;;;;;;9.70;5.90;;;;;;;;;;4950119;28;20022;-79
2021/05/11 03:01:44;;;;;;;8.02;5.63;;;;;;;;;;4954170;28;20033;-80
2021/05/11 03:04:30;;;;;;;9.30;5.30;;;;;;;;;;4954818;28;20398;-79
2021/05/11 03:07:15;;;;;;;6.65;4.70;;;;;;;;;;4961658;28;20113;-79
2021/05/11 03:10:01;;;;;;;7.50;5.00;;;;;;;;;;4951248;28;20033;-79
2021/05/11 03:12:46;;;;;;;9.27;4.40;;;;;;;;;;4960378;28;20039;-79
2021/05/11 03:15:31;;;;;;;6.97;4.38;;;;;;;;;;4954503;28;20027;-79
2021/05/11 03:18:16;;;;;;;7.35;5.50;;;;;;;;;;4958220;28;20038;-80
2021/05/11 03:21:02;;;;;;;6.63;4.45;;;;;;;;;;4961284;28;20019;-80
2021/05/11 03:23:47;;;;;;;6.63;4.15;;;;;;;;;;4953694;28;20031;-79
2021/05/11 03:26:32;;;;;;;9.60;4.38;;;;;;;;;;4959445;28;20055;-80
2021/05/11 03:29:17;;;;;;;6.38;4.25;;;;;;;;;;4951314;28;20027;-79
2021/05/11 03:32:03;;;;;;;6.22;4.25;;;;;;;;;;4958145;28;20026;-79
2021/05/11 03:34:48;;;;;;;6.50;4.32;;;;;;;;;;4954214;28;20509;-80
2021/05/11 03:37:33;;;;;;;6.28;4.28;;;;;;;;;;4956982;28;20018;-80
2021/05/11 03:40:18;;;;;;;6.53;4.57;;;;;;;;;;4953189;28;20031;-80
2021/05/11 03:43:08;;;;;;;6.03;3.90;;;;;;;;;;4959040;28;20060;-80
2021/05/11 03:45:58;;;;;;;5.32;3.88;;;;;;;;;;4953804;28;20027;-81
2021/05/11 03:48:43;;;;;;;6.22;4.38;;;;;;;;;;4957482;28;20026;-80
2021/05/11 03:51:29;;;;;;;6.88;3.70;;;;;;;;;;4955217;28;20027;-80
2021/05/11 03:54:14;;;;;;;6.03;3.83;;;;;;;;;;4961053;28;20101;-80
2021/05/11 03:56:59;;;;;;;4.57;3.55;;;;;;;;;;4962304;28;20027;-80
2021/05/11 03:59:44;;;;;;;6.88;3.58;;;;;;;;;;4959291;28;20481;-80
2021/05/11 04:02:29;;;;;;;10.48;6.32;;;;;;;;;;4962410;28;20034;-80
2021/05/11 04:05:16;;;;;;;12.88;6.38;;;;;;;;;;4962677;28;20379;-78
2021/05/11 04:08:01;;;;;;;13.30;8.98;;;;;;;;;;4962411;28;20033;-78
2021/05/11 04:10:52;;;;;;;15.02;8.98;;;;;;;;;;4957501;28;20022;-80
2021/05/11 04:16:42;;;;;;;14.35;8.35;;;;;;;;;;4957176;28;20564;-79
2021/05/11 04:19:27;;;;;;;13.13;8.43;;;;;;;;;;4960421;28;20078;-78
2021/05/11 04:22:13;;;;;;;17.02;11.40;;;;;;;;;;4957922;28;20034;-79
2021/05/11 04:24:58;;;;;;;15.82;10.20;;;;;;;;;;4958823;28;20037;-79
2021/05/11 04:27:43;;;;;;;14.27;10.15;;;;;;;;;;4957408;28;20405;-79
2021/05/11 04:30:28;;;;;;;17.70;11.63;;;;;;;;;;4961874;28;20149;-79
2021/05/11 04:33:14;;;;;;;18.17;12.10;;;;;;;;;;4959272;28;20372;-79
2021/05/11 04:35:59;;;;;;;19.23;13.68;;;;;;;;;;4956630;28;20018;-79
2021/05/11 04:38:44;;;;;;;19.60;13.82;;;;;;;;;;4958835;28;20445;-80
2021/05/11 04:41:30;;;;;;;21.10;15.55;;;;;;;;;;4958385;28;20023;-80
2021/05/11 04:44:17;;;;;;;18.92;11.98;;;;;;;;;;4963026;28;20085;-80
2021/05/11 04:47:09;;;;;;;21.23;13.85;;;;;;;;;;4963883;28;20066;-80
2021/05/11 04:49:56;;;;;;;21.38;14.75;;;;;;;;;;4957136;28;20114;-80
2021/05/11 04:52:41;;;;;;;19.27;14.23;;;;;;;;;;4961216;28;20515;-80
2021/05/11 04:55:27;;;;;;;19.00;13.65;;;;;;;;;;4962626;28;20494;-80
2021/05/11 04:58:14;;;;;;;18.70;13.77;;;;;;;;;;4953064;28;20641;-79
2021/05/11 05:01:01;;;;;;;21.50;13.25;;;;;;;;;;4957488;28;20037;-77
2021/05/11 05:03:50;;;;;;;19.48;13.73;;;;;;;;;;4952744;28;20377;-79
2021/05/11 05:06:35;;;;;;;16.80;12.30;;;;;;;;;;4966664;28;20026;-78
2021/05/11 05:09:21;;;;;;;16.00;11.82;;;;;;;;;;4950367;28;20031;-77
2021/05/11 05:12:06;;;;;;;20.27;13.23;;;;;;;;;;4958578;28;20108;-77
2021/05/11 05:14:51;;;;;;;18.10;11.60;;;;;;;;;;4959906;28;20026;-78
2021/05/11 05:17:36;;;;;;;17.15;12.30;;;;;;;;;;4952102;28;20030;-77
2021/05/11 05:20:21;;;;;;;16.17;11.43;;;;;;;;;;4956790;28;20026;-78
2021/05/11 05:23:07;;;;;;;14.93;10.85;;;;;;;;;;4965797;28;20061;-78
2021/05/11 05:25:59;;;;;;;18.23;12.88;;;;;;;;;;4961333;28;20277;-78
2021/05/11 05:28:44;;;;;;;17.67;12.38;;;;;;;;;;4958269;28;20774;-78
2021/05/11 05:31:30;;;;;;;15.80;11.48;;;;;;;;;;4966699;28;20124;-78
2021/05/11 05:34:15;;;;;;;15.82;11.48;;;;;;;;;;4958481;28;20081;-79
2021/05/11 05:37:00;;;;;;;16.35;12.10;;;;;;;;;;4960274;28;20027;-77
2021/05/11 05:39:48;;;;;;;17.67;12.70;;;;;;;;;;4957089;28;20038;-79
2021/05/11 05:42:33;;;;;;;16.75;11.48;;;;;;;;;;4965449;28;20031;-78
2021/05/11 05:45:18;;;;;;;16.10;12.10;;;;;;;;;;4956924;28;20136;-79
2021/05/11 05:48:04;;;;;;;15.02;11.00;;;;;;;;;;4957205;28;20466;-78
2021/05/11 05:50:56;;;;;;;16.08;12.18;;;;;;;;;;4952648;28;20096;-79
2021/05/11 05:53:42;;;;;;;14.48;10.43;;;;;;;;;;4957516;28;20056;-78
2021/05/11 05:56:28;;;;;;;15.77;11.77;;;;;;;;;;4955848;28;20065;-77
2021/05/11 05:59:13;;;;;;;15.30;11.60;;;;;;;;;;4958373;28;20445;-76
2021/05/11 06:01:58;;;;;;;15.73;11.43;;;;;;;;;;4958543;28;20031;-75
2021/05/11 06:04:44;;;;;;;15.60;10.73;;;;;;;;;;4954009;28;20030;-78
2021/05/11 06:07:32;;;;;;;14.43;10.27;;;;;;;;;;4957188;28;20072;-78
2021/05/11 06:10:18;;;;;;;16.38;13.05;;;;;;;;;;4958998;28;20034;-79
2021/05/11 06:13:11;;;;;;;14.00;9.35;;;;;;;;;;4958699;28;20386;-80
2021/05/11 06:19:00;;;;;;;13.93;9.18;;;;;;;;;;4959894;28;20043;-79
2021/05/11 06:21:45;;;;;;;13.63;9.30;;;;;;;;;;4954442;28;20035;-78
2021/05/11 06:24:31;;;;;;;12.70;9.60;;;;;;;;;;4952822;28;20083;-78
2021/05/11 06:27:17;;;;;;;14.75;10.25;;;;;;;;;;4959107;28;20144;-78
2021/05/11 06:30:04;;;;;;;14.48;8.90;;;;;;;;;;4963120;28;20022;-79
2021/05/11 06:32:50;;;;;;;12.68;10.00;;;;;;;;;;4950937;28;20342;-79
2021/05/11 06:35:35;;;;;;;12.60;9.95;;;;;;;;;;4961755;28;20050;-81
2021/05/11 06:38:20;;;;;;;16.15;12.25;;;;;;;;;;4956020;28;20038;-80
2021/05/11 06:41:06;;;;;;;15.48;11.98;;;;;;;;;;4959108;28;20111;-81
2021/05/11 06:43:56;;;;;;;17.02;12.60;;;;;;;;;;4964458;28;20117;-82
2021/05/11 06:49:34;;;;;;;13.35;11.23;;;;;;;;;;4963464;28;20571;-80
2021/05/11 06:55:21;;;;;;;17.17;12.55;;;;;;;;;;4956522;28;20030;-80
2021/05/11 06:58:06;;;;;;;15.40;11.80;;;;;;;;;;4953271;28;20046;-80
2021/05/11 07:00:54;;;;;;;15.57;11.77;;;;;;;;;;4959592;28;20113;-81
2021/05/11 07:03:42;;;;;;;13.68;10.93;;;;;;;;;;4959606;28;20030;-81
2021/05/11 07:06:32;;;;;;;14.50;11.18;;;;;;;;;;4956847;28;20034;-81
2021/05/11 07:09:33;;;;;;;;;;;;;;;;;;;;;
2021/05/11 07:15:33;;;;;;;15.98;12.50;;;;;;;;;;4962223;28;20023;-79
2021/05/11 07:18:18;;;;;;;14.65;12.40;;;;;;;;;;4950523;28;20748;-80
2021/05/11 07:21:06;;;;;;;15.38;12.48;;;;;;;;;;4955438;28;20130;-79
2021/05/11 07:23:52;;;;;;;16.63;12.10;;;;;;;;;;4954635;28;20026;-80
2021/05/11 07:26:58;;;;;;;14.77;11.07;;;;;;;;;;4957945;28;20474;-81
2021/05/11 07:29:55;;;;;;;13.15;9.75;;;;;;;;;;4971382;28;20173;-82
2021/05/11 07:32:41;;;;;;;12.80;9.75;;;;;;;;;;4961223;28;20237;-81
2021/05/11 07:35:27;;;;;;;10.98;8.82;;;;;;;;;;4965222;28;20023;-81
2021/05/11 07:38:17;;;;;;;14.48;10.57;;;;;;;;;;4962041;28;20027;-81
2021/05/11 07:41:03;;;;;;;20.02;17.17;;;;;;;;;;4961321;28;20047;-81
2021/05/11 07:43:53;;;;;;;18.65;15.23;;;;;;;;;;4959350;28;20031;-81
2021/05/11 07:46:48;;;;;;;13.90;11.05;;;;;;;;;;4959315;28;20030;-81
2021/05/11 07:50:08;;;;;;;12.88;9.43;;;;;;;;;;4958094;28;20027;-82
2021/05/11 08:14:51;;;;;;;11.27;8.35;;;;;;;;;;4961162;28;20022;-80
2021/05/11 08:17:39;;;;;;;12.95;9.07;;;;;;;;;;4953009;28;20035;-79
2021/05/11 08:29:08;;;;;;;13.13;6.93;;;;;;;;;;4965896;28;20023;-85
2021/05/11 08:31:53;;;;;;;11.07;7.75;;;;;;;;;;4952019;28;20080;-82
2021/05/11 08:34:38;;;;;;;36.85;29.95;;;;;;;;;;4955518;28;20607;-82
2021/05/11 08:37:23;;;;;;;20.77;15.27;;;;;;;;;;4957207;28;20026;-81
2021/05/11 08:40:09;;;;;;;12.23;7.25;;;;;;;;;;4966015;28;20077;-81
2021/05/11 08:42:54;;;;;;;9.32;6.80;;;;;;;;;;4967198;28;20014;-81
2021/05/11 08:45:40;;;;;;;8.45;5.90;;;;;;;;;;4955955;28;20457;-80
2021/05/11 08:48:25;;;;;;;8.52;5.32;;;;;;;;;;4958741;28;20359;-80
2021/05/11 08:51:15;;;;;;;7.50;5.47;;;;;;;;;;4958245;28;20493;-80
2021/05/11 09:06:45;;;;;;;7.72;4.88;;;;;;;;;;4960119;28;20031;-79
2021/05/11 09:27:30;;;;;;;7.47;5.13;;;;;;;;;;4936337;29;20079;-80
2021/05/11 09:30:26;;;;;;;14.23;5.15;;;;;;;;;;4933925;29;20054;-80
2021/05/11 09:33:24;;;;;;;9.52;6.13;;;;;;;;;;4945104;29;20039;-79
2021/05/11 09:57:42;;;;;;;7.82;5.10;;;;;;;;;;4933544;28;20023;-80
2021/05/11 10:41:20;;;;;;;12.73;10.02;;;;;;;;;;4951834;28;20352;-83
2021/05/11 10:47:02;;;;;;;16.75;11.90;;;;;;;;;;4951407;28;20507;-83
2021/05/11 10:49:47;;;;;;;16.25;11.65;;;;;;;;;;4954701;28;20027;-82
2021/05/11 10:52:41;;;;;;;15.25;10.32;;;;;;;;;;4955185;28;20488;-81
2021/05/11 10:55:29;;;;;;;14.35;10.65;;;;;;;;;;4956365;28;20044;-81
2021/05/11 10:58:19;;;;;;;16.15;11.52;;;;;;;;;;4954289;28;20034;-82
2021/05/11 11:01:08;;;;;;;;;;;;;;;;;;4954651;28;20019;-78
2021/05/11 11:03:53;;;;;;;;;;;;;;;;;;4965837;28;19952;-78
2021/05/11 11:07:00;;;;;;;12.75;9.77;;;;;;;;;;4947986;28;19918;-77
2021/05/11 11:09:59;;;;;;;13.90;9.52;;;;;;;;;;4960003;28;20096;-78
2021/05/11 11:12:44;;;;;;;15.27;10.10;;;;;;;;;;4953828;28;20033;-78
2021/05/11 11:15:30;;;;;;;13.32;8.25;;;;;;;;;;4960785;28;20250;-78
2021/05/11 11:18:21;;;;;;;12.00;9.48;;;;;;;;;;4956175;28;20034;-78
2021/05/11 11:23:57;;;;;;;11.13;8.27;;;;;;;;;;4951074;28;20022;-77
2021/05/11 11:26:44;;;;;;;11.00;8.35;;;;;;;;;;4957583;28;20051;-78
2021/05/11 11:29:29;;;;;;;10.55;7.95;;;;;;;;;;4954170;28;20018;-78
2021/05/11 11:32:20;;;;;;;9.85;7.15;;;;;;;;;;4961233;28;20049;-79
2021/05/11 11:35:06;;;;;;;10.02;7.15;;;;;;;;;;4957313;28;20037;-80
2021/05/11 11:37:52;;;;;;;8.38;7.15;;;;;;;;;;4958842;28;20077;-81
2021/05/11 11:40:38;;;;;;;9.77;6.53;;;;;;;;;;4955518;28;20031;-81
2021/05/11 11:43:27;;;;;;;6.78;5.72;;;;;;;;;;4950756;28;20030;-80
2021/05/11 11:46:12;;;;;;;7.32;5.78;;;;;;;;;;4953280;28;20027;-79
2021/05/11 11:49:00;;;;;;;9.02;5.70;;;;;;;;;;4952692;28;20030;-80
2021/05/11 11:51:56;;;;;;;7.67;5.23;;;;;;;;;;4961393;28;20035;-79
2021/05/11 11:54:58;;;;;;;7.40;5.60;;;;;;;;;;4948680;28;20247;-80
2021/05/11 11:57:55;;;;;;;5.85;5.05;;;;;;;;;;4962079;28;20058;-80
2021/05/11 12:00:41;;;;;;;5.72;5.15;;;;;;;;;;4953976;28;20139;-79
2021/05/11 12:03:26;;;;;;;9.32;5.60;;;;;;;;;;4961516;28;20077;-80
2021/05/11 12:06:17;;;;;;;5.07;4.57;;;;;;;;;;4976956;28;20026;-80
2021/05/11 12:09:02;;;;;;;8.45;4.63;;;;;;;;;;4954671;28;21642;-79
2021/05/11 12:11:48;;;;;;;9.05;3.92;;;;;;;;;;4962157;28;20488;-79
2021/05/11 12:14:36;;;;;;;5.82;3.90;;;;;;;;;;4959783;28;20088;-79
2021/05/11 12:17:31;;;;;;;6.55;3.28;;;;;;;;;;4960347;28;20045;-78
2021/05/11 12:20:23;;;;;;;6.47;3.03;;;;;;;;;;4964120;28;20027;-80
2021/05/11 12:23:08;;;;;;;3.05;2.50;;;;;;;;;;4963147;28;20019;-80
2021/05/11 12:25:57;;;;;;;6.07;2.45;;;;;;;;;;4945580;28;20500;-80
2021/05/11 12:28:43;;;;;;;;;;;;;;;;;;4963428;28;20694;-80
2021/05/11 12:31:34;;;;;;;5.32;1.90;;;;;;;;;;4962711;28;19914;-80
2021/05/11 12:34:23;;;;;;;5.60;2.00;;;;;;;;;;4957656;28;20114;-79
2021/05/11 12:37:08;;;;;;;3.67;1.70;;;;;;;;;;4959498;28;20110;-80
2021/05/11 12:40:00;;;;;;;23.73;16.77;;;;;;;;;;4961103;28;20270;-80
2021/05/11 12:42:45;;;;;;;4.97;2.70;;;;;;;;;;4958653;28;20393;-81
2021/05/11 12:45:35;;;;;;;2.65;1.85;;;;;;;;;;4953073;28;20034;-79
2021/05/11 12:48:21;;;;;;;2.45;2.10;;;;;;;;;;4958668;28;20494;-80
2021/05/11 12:51:08;;;;;;;3.80;2.60;;;;;;;;;;4954991;28;20596;-79
2021/05/11 12:53:56;;;;;;;4.20;2.20;;;;;;;;;;4952772;28;20031;-79
2021/05/11 13:15:11;;;;;;;3.53;2.35;;;;;;;;;;4968673;28;20019;-84
2021/05/11 13:27:03;;;;;;;3.03;2.08;;;;;;;;;;4953533;28;20046;-81
2021/05/11 13:35:38;;;;;;;20.45;13.18;;;;;;;;;;4974014;28;20117;-78
2021/05/11 13:38:23;;;;;;;6.88;3.80;;;;;;;;;;4952813;28;20019;-79
2021/05/11 13:41:08;;;;;;;6.10;3.63;;;;;;;;;;4956232;28;20030;-78
2021/05/11 13:43:53;;;;;;;9.25;4.63;;;;;;;;;;4957280;28;20066;-78
2021/05/11 13:46:38;;;;;;;5.18;4.28;;;;;;;;;;4959941;28;20495;-78
2021/05/11 13:49:24;;;;;;;6.97;4.85;;;;;;;;;;4953901;28;20069;-78
2021/05/11 13:52:09;;;;;;;5.90;4.40;;;;;;;;;;4957342;28;20366;-78
2021/05/11 13:54:59;;;;;;;8.93;5.53;;;;;;;;;;4955899;28;20678;-80
2021/05/11 14:03:53;;;;;;;6.70;4.97;;;;;;;;;;4955347;28;20019;-79
2021/05/11 14:06:38;;;;;;;4.63;3.92;;;;;;;;;;4958396;28;20033;-79
2021/05/11 14:09:23;;;;;;;6.85;5.20;;;;;;;;;;4950312;28;20058;-79
2021/05/11 14:12:08;;;;;;;6.63;4.72;;;;;;;;;;4958212;28;20069;-78
2021/05/11 14:14:54;;;;;;;9.55;5.00;;;;;;;;;;4965185;28;20023;-79
2021/05/11 14:17:39;;;;;;;6.88;5.30;;;;;;;;;;4968825;28;20022;-79
2021/05/11 14:20:24;;;;;;;6.78;5.45;;;;;;;;;;4955724;28;20073;-79
2021/05/11 14:23:09;;;;;;;10.00;6.95;;;;;;;;;;4959738;28;20057;-79
2021/05/11 14:25:55;;;;;;;8.93;6.00;;;;;;;;;;4956601;28;20057;-79
2021/05/11 14:28:40;;;;;;;6.82;5.45;;;;;;;;;;4959156;28;20453;-79
2021/05/11 14:31:26;;;;;;;9.32;6.20;;;;;;;;;;4940979;28;20087;-78
2021/05/11 14:34:13;;;;;;;7.22;5.68;;;;;;;;;;4963208;28;20023;-79
2021/05/11 14:36:58;;;;;;;9.18;6.07;;;;;;;;;;4960495;28;20026;-78
2021/05/11 14:39:43;;;;;;;9.13;5.93;;;;;;;;;;4962575;28;20026;-79
2021/05/11 14:42:28;;;;;;;8.70;6.18;;;;;;;;;;4956780;28;20126;-78
2021/05/11 14:45:14;;;;;;;8.55;5.22;;;;;;;;;;4964412;28;20050;-78
2021/05/11 14:47:59;;;;;;;8.00;5.50;;;;;;;;;;4959287;28;20062;-78
2021/05/11 14:50:44;;;;;;;9.38;5.95;;;;;;;;;;4953161;28;20051;-77
2021/05/11 14:53:30;;;;;;;8.75;5.78;;;;;;;;;;4952586;28;20023;-78
2021/05/11 14:56:16;;;;;;;8.27;6.07;;;;;;;;;;4955044;28;20303;-79
2021/05/11 14:59:01;;;;;;;8.25;5.78;;;;;;;;;;4964841;28;20336;-80
2021/05/11 15:01:46;;;;;;;9.82;5.82;;;;;;;;;;4963444;28;20062;-79
2021/05/11 15:04:31;;;;;;;7.90;5.00;;;;;;;;;;4960540;28;20102;-79
2021/05/11 15:07:17;;;;;;;8.55;5.13;;;;;;;;;;4956805;28;20068;-78
2021/05/11 15:10:03;;;;;;;8.23;5.55;;;;;;;;;;4960984;28;20026;-78
2021/05/11 15:12:50;;;;;;;7.18;4.60;;;;;;;;;;4949061;28;20164;-80
2021/05/11 15:15:49;;;;;;;6.95;4.65;;;;;;;;;;4954540;28;20023;-79
2021/05/11 15:18:35;;;;;;;5.70;3.70;;;;;;;;;;4951462;28;20014;-79
2021/05/11 15:21:20;;;;;;;7.25;4.60;;;;;;;;;;4964582;28;20030;-78
2021/05/11 15:24:06;;;;;;;6.03;3.92;;;;;;;;;;4958070;28;20214;-78
2021/05/11 15:26:51;;;;;;;8.35;5.25;;;;;;;;;;4960455;28;20181;-78
2021/05/11 15:29:37;;;;;;;5.82;4.35;;;;;;;;;;4956641;28;20042;-80
2021/05/11 15:32:38;;;;;;;7.53;3.65;;;;;;;;;;4956368;28;20495;-78
2021/05/11 15:35:31;;;;;;;4.38;2.70;;;;;;;;;;4953058;28;20049;-78
2021/05/11 15:38:16;;;;;;;5.13;2.92;;;;;;;;;;4952505;28;20054;-78
2021/05/11 15:41:01;;;;;;;2.85;1.90;;;;;;;;;;4953651;28;20069;-79
2021/05/11 15:43:46;;;;;;;3.72;2.58;;;;;;;;;;4955130;28;20121;-79
2021/05/11 15:46:32;;;;;;;4.22;1.75;;;;;;;;;;4953873;28;20042;-77
2021/05/11 15:49:17;;;;;;;3.17;2.08;;;;;;;;;;4953521;28;20062;-78
2021/05/11 15:52:02;;;;;;;2.42;1.60;;;;;;;;;;4957401;28;20019;-78
2021/05/11 15:54:48;;;;;;;4.00;1.70;;;;;;;;;;4958763;28;20034;-78
2021/05/11 15:57:33;;;;;;;2.33;1.17;;;;;;;;;;4962517;28;20097;-78
2021/05/11 16:00:19;;;;;;;3.15;1.33;;;;;;;;;;4962189;28;20062;-79
2021/05/11 16:03:05;;;;;;;1.80;1.10;;;;;;;;;;4960229;28;20085;-78
2021/05/11 16:05:50;;;;;;;2.85;0.90;;;;;;;;;;4962968;28;20026;-79
2021/05/11 16:08:36;;;;;;;2.30;1.35;;;;;;;;;;4955773;28;20105;-79
2021/05/11 16:11:21;;;;;;;2.13;1.20;;;;;;;;;;4961810;28;20022;-79
2021/05/11 16:14:06;;;;;;;1.20;0.90;;;;;;;;;;4959424;28;20560;-79
2021/05/11 16:16:51;;;;;;;3.97;2.20;;;;;;;;;;4960516;28;20023;-80
2021/05/11 16:19:36;;;;;;;10.75;5.50;;;;;;;;;;4961140;28;20114;-80
2021/05/11 16:22:21;;;;;;;2.72;1.63;;;;;;;;;;4960514;28;20072;-79
2021/05/11 16:25:09;;;;;;;4.85;1.13;;;;;;;;;;4955880;28;20043;-80
2021/05/11 16:27:54;;;;;;;3.17;1.75;;;;;;;;;;4947056;28;20497;-80
2021/05/11 16:30:40;;;;;;;5.78;1.15;;;;;;;;;;4953224;28;20029;-78
2021/05/11 16:33:25;;;;;;;3.80;1.10;;;;;;;;;;4960161;28;20039;-79
2021/05/11 16:36:10;;;;;;;3.80;1.67;;;;;;;;;;4948379;28;20071;-82
2021/05/11 16:38:56;;;;;;;4.32;1.70;;;;;;;;;;4944972;28;20122;-79
2021/05/11 16:41:41;;;;;;;3.50;1.30;;;;;;;;;;4956559;28;20529;-79
2021/05/11 16:44:26;;;;;;;4.15;1.42;;;;;;;;;;4958801;28;20039;-79
2021/05/11 16:47:11;;;;;;;3.90;1.48;;;;;;;;;;4957196;28;20018;-79
2021/05/11 16:49:57;;;;;;;3.40;1.10;;;;;;;;;;4954176;28;20643;-79
2021/05/11 16:52:42;;;;;;;2.47;1.10;;;;;;;;;;4957963;28;20375;-79
2021/05/11 16:55:28;;;;;;;8.32;1.23;;;;;;;;;;4956647;28;20469;-81
2021/05/11 16:58:13;;;;;;;2.45;1.15;;;;;;;;;;4960699;28;20019;-83
2021/05/11 17:04:17;;;;;;;5.78;2.33;;;;;;;;;;4929904;28;20078;-80
2021/05/11 17:07:02;;;;;;;5.82;2.33;;;;;;;;;;4957588;28;20081;-80
2021/05/11 17:09:47;;;;;;;4.93;1.30;;;;;;;;;;4962648;28;20022;-79
2021/05/11 17:12:32;;;;;;;3.15;1.40;;;;;;;;;;4958904;28;20038;-80
2021/05/11 17:15:17;;;;;;;9.38;1.95;;;;;;;;;;4954892;28;20046;-78
2021/05/11 17:18:04;;;;;;;3.40;1.48;;;;;;;;;;4955098;28;20045;-79
2021/05/11 17:20:49;;;;;;;1.52;1.00;;;;;;;;;;4960899;28;20508;-79
2021/05/11 17:23:34;;;;;;;5.47;2.28;;;;;;;;;;4964795;28;20167;-79
2021/05/11 17:26:20;;;;;;;6.45;1.25;;;;;;;;;;4957666;28;20395;-79
2021/05/11 17:29:16;;;;;;;4.05;1.60;;;;;;;;;;4955907;28;20026;-79
2021/05/11 17:32:01;;;;;;;4.75;1.27;;;;;;;;;;4958574;28;20118;-78
2021/05/11 17:34:46;;;;;;;4.82;1.40;;;;;;;;;;4944654;28;20027;-79
2021/05/11 17:37:31;;;;;;;3.20;1.20;;;;;;;;;;4952527;28;20035;-80
2021/05/11 17:40:18;;;;;;;6.18;1.60;;;;;;;;;;4954590;28;20031;-80
2021/05/11 17:43:03;;;;;;;4.95;1.85;;;;;;;;;;4951334;28;20053;-79
2021/05/11 17:45:52;;;;;;;2.92;1.05;;;;;;;;;;4968614;28;20085;-80
2021/05/11 17:48:38;;;;;;;8.55;1.23;;;;;;;;;;4956439;28;20621;-79
2021/05/11 17:51:23;;;;;;;4.68;1.67;;;;;;;;;;4955451;28;20401;-79
2021/05/11 17:54:15;;;;;;;4.75;1.70;;;;;;;;;;4961295;28;20053;-81
2021/05/11 17:57:00;;;;;;;5.53;2.72;;;;;;;;;;4952831;28;20130;-80
2021/05/11 17:59:46;;;;;;;6.00;1.50;;;;;;;;;;4960435;28;20030;-81
2021/05/11 18:02:33;;;;;;;6.22;3.03;;;;;;;;;;4958110;28;20035;-81
2021/05/11 18:05:18;;;;;;;3.17;1.50;;;;;;;;;;4952335;28;20453;-80
2021/05/11 18:08:04;;;;;;;7.22;2.08;;;;;;;;;;4955543;28;20057;-79
2021/05/11 18:10:50;;;;;;;5.00;1.60;;;;;;;;;;4967046;28;20035;-79
2021/05/11 18:13:35;;;;;;;5.90;2.95;;;;;;;;;;4957002;28;20046;-79
2021/05/11 18:16:20;;;;;;;11.18;6.35;;;;;;;;;;4964071;28;20037;-79
2021/05/11 18:19:05;;;;;;;5.10;1.70;;;;;;;;;;4964273;28;20044;-80
2021/05/11 18:21:50;;;;;;;2.40;1.35;;;;;;;;;;4955057;28;20030;-79
2021/05/11 18:24:36;;;;;;;4.22;1.50;;;;;;;;;;4955937;28;20040;-80
2021/05/11 18:27:22;;;;;;;4.88;1.60;;;;;;;;;;4959412;28;20062;-80
2021/05/11 18:30:15;;;;;;;4.00;2.15;;;;;;;;;;4964220;28;20060;-80
2021/05/11 18:33:01;;;;;;;2.50;1.60;;;;;;;;;;4959567;28;20515;-78
2021/05/11 18:35:47;;;;;;;6.10;1.77;;;;;;;;;;4956151;28;20049;-80
2021/05/11 18:38:33;;;;;;;5.70;1.75;;;;;;;;;;4961625;28;20377;-79
2021/05/11 18:41:18;;;;;;;3.58;1.88;;;;;;;;;;4952971;28;20027;-78
2021/05/11 18:44:04;;;;;;;6.40;2.30;;;;;;;;;;4954780;28;20030;-81
2021/05/11 18:46:51;;;;;;;2.33;1.60;;;;;;;;;;4956127;28;20034;-83
2021/05/11 18:49:36;;;;;;;3.92;1.50;;;;;;;;;;4952171;28;20030;-82
2021/05/11 18:52:22;;;;;;;3.83;1.50;;;;;;;;;;4956332;28;20038;-82
2021/05/11 18:55:07;;;;;;;5.10;1.55;;;;;;;;;;4940608;28;20069;-83
2021/05/11 18:57:53;;;;;;;6.70;1.73;;;;;;;;;;4953111;28;20389;-83
2021/05/11 19:00:38;;;;;;;14.95;13.23;;;;;;;;;;4956309;28;20076;-82
2021/05/11 19:03:23;;;;;;;20.25;14.20;;;;;;;;;;4940150;28;20490;-82
2021/05/11 19:06:09;;;;;;;7.22;2.83;;;;;;;;;;4963112;28;20035;-83
2021/05/11 19:08:55;;;;;;;2.97;1.83;;;;;;;;;;4943582;28;20019;-81
2021/05/11 19:11:41;;;;;;;5.63;1.98;;;;;;;;;;4940466;28;20022;-81
2021/05/11 19:14:26;;;;;;;2.47;1.73;;;;;;;;;;4949175;28;20035;-83
2021/05/11 19:17:11;;;;;;;3.92;1.88;;;;;;;;;;4953107;28;20023;-82
2021/05/11 19:19:57;;;;;;;3.83;2.00;;;;;;;;;;4953139;28;20453;-82
2021/05/11 19:22:42;;;;;;;2.88;1.77;;;;;;;;;;4958169;28;20030;-82
2021/05/11 19:25:27;;;;;;;5.15;2.00;;;;;;;;;;4954167;28;20141;-82
2021/05/11 19:28:13;;;;;;;4.13;1.80;;;;;;;;;;4955237;28;20037;-82
2021/05/11 19:31:02;;;;;;;2.75;1.40;;;;;;;;;;4953098;28;20030;-81
2021/05/11 19:33:50;;;;;;;26.88;20.90;;;;;;;;;;4954801;28;20049;-83
2021/05/11 19:36:38;;;;;;;4.93;2.80;;;;;;;;;;4954000;28;20048;-82
2021/05/11 19:39:23;;;;;;;2.17;1.30;;;;;;;;;;4952642;28;20031;-81
2021/05/11 19:42:08;;;;;;;4.40;1.48;;;;;;;;;;4952664;28;20061;-82
2021/05/11 19:44:54;;;;;;;2.95;1.38;;;;;;;;;;4955882;28;20518;-81
2021/05/11 19:47:39;;;;;;;2.95;1.45;;;;;;;;;;4955967;28;20113;-82
2021/05/11 19:50:26;;;;;;;2.83;1.42;;;;;;;;;;4952348;28;20054;-80
2021/05/11 19:53:12;;;;;;;3.28;1.65;;;;;;;;;;4954435;28;20478;-81
2021/05/11 19:55:57;;;;;;;3.65;1.80;;;;;;;;;;4957413;28;20022;-81
2021/05/11 19:58:42;;;;;;;2.88;1.40;;;;;;;;;;4954683;28;20050;-82
2021/05/11 20:01:34;;;;;;;2.35;1.40;;;;;;;;;;4951024;28;20479;-81
2021/05/11 20:04:20;;;;;;;2.10;1.25;;;;;;;;;;4952981;28;20605;-82
2021/05/11 20:07:11;;;;;;;1.50;1.25;;;;;;;;;;4951187;28;20027;-83
2021/05/11 20:09:56;;;;;;;2.28;1.33;;;;;;;;;;4955428;28;20046;-82
2021/05/11 20:12:42;;;;;;;3.08;1.60;;;;;;;;;;4949782;28;20061;-83
2021/05/11 20:15:28;;;;;;;2.05;1.40;;;;;;;;;;4937183;28;20401;-80
2021/05/11 20:18:13;;;;;;;5.18;3.25;;;;;;;;;;4950890;28;20023;-81
2021/05/11 20:20:58;;;;;;;17.63;11.55;;;;;;;;;;4954455;28;20048;-81
2021/05/11 20:23:43;;;;;;;3.10;2.50;;;;;;;;;;4949588;28;20533;-81
2021/05/11 20:26:30;;;;;;;2.72;1.33;;;;;;;;;;4954776;28;20055;-82
2021/05/11 20:29:15;;;;;;;2.00;1.20;;;;;;;;;;4956671;28;20565;-81